首页
METAR-TAF:

METAR-TAF

机场 :

Pratica di Mare, 意大利

纬度: 41-39N, 经度: 012-27E, 海拔: 6米

当前天气观测

该预报发布于1小时和8分钟前的20:55 UTC
风速4节,风向,在北转西北北转东北之间变化
温度 11°C
湿度 82%
气压 1026 hPa
能見度: 8000
散云层高于1000英尺
多云层高于1800英尺

METAR: LIRE 262055Z 35004KT 330V030 8000 SCT010 BKN018 11/08 Q1026 RMK OVC VIS MIN 8000 WIND THR13 36004KT WIND THR31 /////KT WHT

时间: 23:03 (22:03 UTC)

预报

该预报发布于2小时和3分钟前的20:00 UTC
预报有效从26日的 21点(UTC)到 27日的 06点(UTC)
风速5节,风向北转西北
能見度: 4000
散云层高于1000英尺
轻雾
短暂存在
从 26日的 22点(UTC)到 27日的 05点(UTC)
能見度: 0600
多云层高于500英尺

TAF: LIRE 262000Z 2621/2706 34005KT 4000 BR SCT010 TEMPO 2622/2705 0600 FG BKN005

超过4000个机场的气象观测和天气预报(METAR&TAF报告)。

可查询的气象台以黄色和红色小点在地图上表示。

将鼠标移到小点上方,可查看气象台名称。

然后点击查看天气观测和预报。

如需切换地图:点击带黑十字的绿色按钮放大地图;点击带横线的绿色按钮缩小地图;或者点击绿色箭头查看邻近地区的地图。


METAR-TAF: